Terminal Aerodrome Forecast
Issued by NWS

Home | Current Version | Previous Version | Graphics & Text | Print | Product List | Glossary Off
Versions: 1 2 3 4 5 6 7 8 9 10 11 12 13 14 15 16 17 18 19 20 21 22

000
FTUS43 KDDC 222342
TAFGCK
TAF
KGCK 222342Z 2300/2324 17013KT P6SM SCT060
     FM230400 17008KT P6SM SCT015
     FM230900 VRB05KT 1/2SM FG OVC005
     FM231900 16006KT P6SM SCT035=

USA.gov is the U.S. government's official web portal to all federal, state and local government web resources and services.